createdAt,value
2023-04-18T00:00:25.794Z,19.17
2023-04-18T00:03:02.290Z,18.27
2023-04-18T00:05:34.425Z,17.42
2023-04-18T00:08:10.313Z,17.02
2023-04-18T00:10:44.055Z,19.62
2023-04-18T00:13:18.538Z,16.20
2023-04-18T00:15:53.818Z,18.57
2023-04-18T00:18:27.941Z,17.15
2023-04-18T00:21:01.693Z,20.17
2023-04-18T00:23:35.548Z,14.65
2023-04-18T00:26:09.068Z,16.75
2023-04-18T00:28:44.008Z,26.55
2023-04-18T00:31:17.651Z,23.05
2023-04-18T00:33:51.387Z,22.93
2023-04-18T00:36:24.961Z,19.67
2023-04-18T00:38:58.505Z,26.30
2023-04-18T00:41:33.112Z,27.32
2023-04-18T00:44:07.113Z,22.65
2023-04-18T00:46:40.903Z,18.48
2023-04-18T00:49:14.597Z,17.67
2023-04-18T00:51:48.798Z,28.25
2023-04-18T00:54:23.171Z,38.23
2023-04-18T00:56:56.914Z,15.58
2023-04-18T00:59:31.211Z,28.20
2023-04-18T01:02:04.925Z,50.15
2023-04-18T01:04:40.296Z,48.78
2023-04-18T01:41:10.515Z,45.75
2023-04-18T01:43:44.101Z,18.35
2023-04-18T01:46:17.837Z,34.20
2023-04-18T01:48:51.673Z,23.42
2023-04-18T01:51:28.425Z,38.48
2023-04-18T01:54:01.993Z,34.70
2023-04-18T01:56:36.517Z,27.42
2023-04-18T01:59:12.295Z,37.40
2023-04-18T02:01:45.966Z,19.02
2023-04-18T02:04:19.594Z,29.55
2023-04-18T02:06:53.274Z,26.42
2023-04-18T02:09:26.708Z,42.55
2023-04-18T02:12:01.812Z,20.52
2023-04-18T02:14:37.796Z,32.58
2023-04-18T02:17:11.299Z,20.25
2023-04-18T02:19:44.921Z,17.37
2023-04-18T02:22:18.597Z,30.50
2023-04-18T02:24:52.150Z,30.25
2023-04-18T02:27:26.035Z,19.67
2023-04-18T02:30:01.158Z,34.13
2023-04-18T02:32:36.475Z,41.92
2023-04-18T02:35:10.728Z,20.12
2023-04-18T02:37:45.449Z,28.87
2023-04-18T02:40:19.167Z,37.08
2023-04-18T02:42:52.680Z,48.87
2023-04-18T02:45:26.317Z,28.38
2023-04-18T02:48:00.654Z,58.25
2023-04-18T02:50:35.605Z,28.05
2023-04-18T02:53:09.350Z,38.67
2023-04-18T02:55:47.626Z,23.62
2023-04-18T02:58:21.789Z,26.93
2023-04-18T03:01:03.180Z,24.18
2023-04-18T03:03:54.501Z,32.15
2023-04-18T03:06:32.376Z,28.20
2023-04-18T03:09:07.380Z,30.08
2023-04-18T03:11:42.485Z,29.18
2023-04-18T03:14:16.037Z,33.50
2023-04-18T03:16:53.869Z,47.03
2023-04-18T03:19:28.119Z,51.00
2023-04-18T03:22:02.113Z,32.13
2023-04-18T03:24:36.279Z,36.90
2023-04-18T03:27:11.602Z,32.40
2023-04-18T03:29:45.521Z,31.52
2023-04-18T03:32:20.011Z,29.18
2023-04-18T03:34:54.410Z,31.00
2023-04-18T03:37:27.981Z,19.23
2023-04-18T03:40:01.874Z,37.00
2023-04-18T03:42:35.547Z,43.73
2023-04-18T03:45:11.404Z,30.12
2023-04-18T03:47:45.373Z,42.95
2023-04-18T03:50:18.678Z,43.33
2023-04-18T03:52:53.276Z,17.92
2023-04-18T03:55:27.646Z,51.63
2023-04-18T03:58:01.575Z,44.25
2023-04-18T04:00:35.574Z,43.33
2023-04-18T04:03:11.111Z,28.20
2023-04-18T04:05:46.213Z,39.63
2023-04-18T04:08:20.781Z,22.62
2023-04-18T04:10:55.462Z,40.43
2023-04-18T04:13:29.302Z,26.20
2023-04-18T04:16:03.032Z,24.02
2023-04-18T04:18:37.300Z,26.17
2023-04-18T04:21:10.924Z,28.17
2023-04-18T04:23:51.583Z,39.03
2023-04-18T04:26:31.833Z,28.65
2023-04-18T04:29:10.252Z,23.62
2023-04-18T04:31:44.647Z,20.02
2023-04-18T04:34:25.507Z,24.30
2023-04-18T04:36:58.989Z,30.10
2023-04-18T04:39:33.130Z,16.90
2023-04-18T04:42:12.494Z,24.55
2023-04-18T04:44:47.903Z,23.87
2023-04-18T04:47:22.264Z,19.62
2023-04-18T04:49:56.212Z,22.65
2023-04-18T04:52:29.884Z,21.62
2023-04-18T04:55:03.629Z,18.02
2023-04-18T04:57:45.551Z,23.87
2023-04-18T05:00:24.401Z,21.23
2023-04-18T05:02:58.751Z,27.58
2023-04-18T05:05:32.983Z,21.65
2023-04-18T05:08:07.063Z,21.35
2023-04-18T05:10:41.108Z,22.35
2023-04-18T05:13:14.798Z,24.85
2023-04-18T05:15:48.407Z,22.62
2023-04-18T05:18:22.104Z,26.95
2023-04-18T05:20:56.041Z,19.82
2023-04-18T05:23:29.487Z,19.42
2023-04-18T05:26:02.905Z,21.02
2023-04-18T05:28:36.318Z,22.32
2023-04-18T05:31:09.844Z,23.40
2023-04-18T05:33:43.400Z,20.52
2023-04-18T05:36:17.996Z,21.25
2023-04-18T05:38:51.722Z,19.12
2023-04-18T05:41:25.138Z,19.02
2023-04-18T05:44:05.342Z,23.22
2023-04-18T05:46:34.435Z,24.80
2023-04-18T05:49:08.125Z,27.62
2023-04-18T05:51:42.255Z,22.87
2023-04-18T05:54:16.289Z,23.55
2023-04-18T05:56:50.117Z,21.48
2023-04-18T05:59:24.408Z,20.35
2023-04-18T06:01:58.536Z,23.32
2023-04-18T06:04:32.272Z,22.58
2023-04-18T06:07:06.438Z,21.17
2023-04-18T06:09:40.128Z,19.40
2023-04-18T06:12:13.761Z,23.02
2023-04-18T06:14:47.540Z,20.77
2023-04-18T06:17:21.493Z,20.45
2023-04-18T06:19:55.180Z,18.37
2023-04-18T06:22:28.642Z,26.35
2023-04-18T06:25:02.451Z,16.77
2023-04-18T06:27:36.625Z,18.92
2023-04-18T06:30:11.471Z,17.62
2023-04-18T06:32:44.990Z,20.25
2023-04-18T06:35:18.520Z,22.75
2023-04-18T06:37:52.677Z,22.40
2023-04-18T06:40:26.413Z,22.98
2023-04-18T06:42:59.652Z,19.82
2023-04-18T06:45:34.100Z,25.48
2023-04-18T06:48:10.249Z,21.68
2023-04-18T06:50:44.886Z,18.52
2023-04-18T06:53:20.624Z,21.30
2023-04-18T06:56:00.999Z,21.25
2023-04-18T06:58:34.802Z,26.48
2023-04-18T07:01:11.474Z,17.92
2023-04-18T07:03:51.295Z,17.77
2023-04-18T07:06:29.100Z,20.25
2023-04-18T07:09:03.519Z,19.07
2023-04-18T07:11:37.648Z,16.55
2023-04-18T07:14:12.417Z,21.23
2023-04-18T07:16:46.177Z,20.48
2023-04-18T07:19:19.812Z,24.47
2023-04-18T07:21:54.073Z,21.73
2023-04-18T07:24:28.788Z,22.25
2023-04-18T07:27:02.730Z,23.07
2023-04-18T07:29:34.531Z,23.75
2023-04-18T07:32:08.474Z,19.80
2023-04-18T07:34:42.836Z,17.48
2023-04-18T07:37:17.770Z,24.95
2023-04-18T07:39:51.646Z,21.82
2023-04-18T07:42:25.046Z,18.75
2023-04-18T07:45:00.724Z,23.42
2023-04-18T07:47:35.893Z,22.70
2023-04-18T07:50:11.777Z,25.25
2023-04-18T07:52:47.857Z,25.65
2023-04-18T07:55:25.119Z,19.95
2023-04-18T07:57:58.382Z,17.90
2023-04-18T08:00:32.843Z,16.73
2023-04-18T08:03:08.002Z,24.50
2023-04-18T08:05:42.324Z,17.00
2023-04-18T08:08:15.828Z,14.83
2023-04-18T08:10:49.176Z,17.50
2023-04-18T08:13:23.119Z,23.07
2023-04-18T08:15:57.109Z,21.80
2023-04-18T08:18:33.848Z,17.30
2023-04-18T08:21:08.062Z,12.20
2023-04-18T08:23:42.066Z,16.23
2023-04-18T08:26:19.564Z,18.73
2023-04-18T08:28:53.538Z,19.20
2023-04-18T08:31:27.791Z,15.40
2023-04-18T08:34:03.707Z,12.25
2023-04-18T08:36:37.213Z,14.15
2023-04-18T08:39:10.988Z,20.97
2023-04-18T08:41:46.775Z,17.23
2023-04-18T08:44:21.712Z,18.27
2023-04-18T08:46:55.175Z,19.80
2023-04-18T08:49:28.972Z,17.00
2023-04-18T08:52:04.214Z,12.65
2023-04-18T08:54:38.754Z,18.80
2023-04-18T08:57:13.892Z,14.53
2023-04-18T08:59:50.850Z,13.05
2023-04-18T09:02:24.376Z,11.10
2023-04-18T09:04:57.726Z,17.75
2023-04-18T09:07:34.554Z,12.93
2023-04-18T09:10:10.016Z,14.67
2023-04-18T09:12:48.904Z,14.68
2023-04-18T09:15:27.345Z,15.98
2023-04-18T09:18:03.419Z,11.18
2023-04-18T09:20:41.661Z,12.65
2023-04-18T09:23:17.521Z,13.75
2023-04-18T09:25:53.439Z,8.60
2023-04-18T09:28:28.865Z,13.18
2023-04-18T09:31:11.958Z,14.30
2023-04-18T09:33:49.758Z,13.38
2023-04-18T09:38:57.455Z,11.97
2023-04-18T09:41:32.774Z,11.15
2023-04-18T09:44:15.280Z,10.48
2023-04-18T09:46:49.624Z,11.75
2023-04-18T09:49:23.856Z,14.60
2023-04-18T09:51:58.093Z,12.98
2023-04-18T09:54:34.380Z,10.82
2023-04-18T09:57:10.771Z,13.75
2023-04-18T09:59:48.290Z,11.85
2023-04-18T10:04:58.720Z,14.45
2023-04-18T10:07:34.720Z,13.15
2023-04-18T10:10:10.584Z,9.33
2023-04-18T10:12:47.174Z,12.13
2023-04-18T10:15:21.907Z,9.50
2023-04-18T10:20:33.334Z,11.78
2023-04-18T10:23:38.210Z,8.98
2023-04-18T10:26:12.440Z,14.33
2023-04-18T10:28:57.228Z,9.58
2023-04-18T10:31:31.457Z,10.78
2023-04-18T10:34:08.141Z,11.57
2023-04-18T10:36:48.514Z,16.50
2023-04-18T10:39:26.304Z,8.30
2023-04-18T10:41:59.886Z,10.63
2023-04-18T10:44:33.334Z,10.20
2023-04-18T10:47:37.828Z,10.95
2023-04-18T10:50:11.929Z,10.25
2023-04-18T10:52:45.575Z,14.45
2023-04-18T10:55:24.373Z,8.75
2023-04-18T10:57:59.946Z,11.78
2023-04-18T11:00:35.318Z,8.78
2023-04-18T11:03:08.972Z,9.13
2023-04-18T11:05:42.451Z,15.10
2023-04-18T11:08:25.864Z,7.87
2023-04-18T11:11:04.271Z,9.08
2023-04-18T11:13:37.797Z,10.80
2023-04-18T11:16:13.425Z,11.83
2023-04-18T11:18:47.222Z,11.35
2023-04-18T11:21:20.686Z,8.85
2023-04-18T11:23:53.965Z,10.00
2023-04-18T11:26:30.024Z,8.33
2023-04-18T11:29:04.842Z,10.32
2023-04-18T11:31:38.661Z,9.95
2023-04-18T11:34:12.315Z,8.65
2023-04-18T11:36:45.800Z,10.03
2023-04-18T11:39:20.597Z,13.15
2023-04-18T11:41:55.869Z,10.95
2023-04-18T11:44:29.447Z,7.55
2023-04-18T11:47:03.391Z,9.48
2023-04-18T11:49:36.659Z,8.95
2023-04-18T11:52:15.292Z,7.37
2023-04-18T11:54:48.712Z,10.72
2023-04-18T11:57:29.884Z,8.03
2023-04-18T12:00:06.295Z,8.98
2023-04-18T12:02:47.029Z,7.42
2023-04-18T12:05:29.383Z,13.98
2023-04-18T12:08:10.615Z,8.93
2023-04-18T12:10:51.496Z,10.30
2023-04-18T12:13:28.875Z,12.55
2023-04-18T12:16:04.345Z,9.93
2023-04-18T12:18:39.294Z,9.63
2023-04-18T12:21:14.033Z,8.88
2023-04-18T12:23:48.291Z,9.63
2023-04-18T12:26:23.048Z,7.45
2023-04-18T12:28:56.326Z,10.30
2023-04-18T12:31:29.471Z,10.55
2023-04-18T12:34:03.030Z,11.10
2023-04-18T12:36:36.578Z,13.85
2023-04-18T12:39:10.233Z,14.47
2023-04-18T12:41:43.485Z,15.63
2023-04-18T12:44:16.916Z,12.75
2023-04-18T12:46:50.137Z,10.93
2023-04-18T12:49:23.312Z,13.25
2023-04-18T12:51:56.913Z,9.55
2023-04-18T12:54:30.457Z,11.05
2023-04-18T12:57:04.181Z,12.73
2023-04-18T12:59:37.520Z,14.38
2023-04-18T13:02:11.259Z,11.05
2023-04-18T13:04:45.247Z,13.28
2023-04-18T13:07:18.603Z,13.43
2023-04-18T13:09:52.102Z,9.55
2023-04-18T13:12:25.477Z,11.57
2023-04-18T13:14:58.946Z,11.33
2023-04-18T13:17:33.881Z,14.05
2023-04-18T13:20:10.758Z,13.32
2023-04-18T13:22:44.889Z,15.08
2023-04-18T13:25:18.375Z,11.83
2023-04-18T13:27:52.174Z,18.90
2023-04-18T13:30:25.898Z,12.35
2023-04-18T13:32:59.717Z,11.95
2023-04-18T13:35:33.396Z,13.58
2023-04-18T13:38:06.723Z,17.45
2023-04-18T13:40:40.189Z,18.70
2023-04-18T13:43:15.655Z,17.85
2023-04-18T13:45:49.513Z,14.50
2023-04-18T13:48:22.784Z,20.35
2023-04-18T13:50:58.351Z,20.70
2023-04-18T13:53:31.818Z,17.00
2023-04-18T13:56:05.307Z,14.13
2023-04-18T13:58:38.814Z,17.00
2023-04-18T14:01:14.226Z,15.55
2023-04-18T14:03:48.242Z,18.87
2023-04-18T14:06:22.076Z,20.32
2023-04-18T14:08:55.563Z,18.45
2023-04-18T14:11:29.433Z,17.15
2023-04-18T14:14:03.214Z,16.97
2023-04-18T14:16:37.119Z,16.97
2023-04-18T14:19:10.879Z,20.68
2023-04-18T14:21:44.181Z,16.80
2023-04-18T14:24:17.640Z,17.80
2023-04-18T14:26:52.911Z,22.80
2023-04-18T14:29:26.773Z,16.55
2023-04-18T14:32:00.818Z,16.93
2023-04-18T14:34:38.888Z,39.60
2023-04-18T14:37:12.326Z,14.98
2023-04-18T14:39:46.260Z,18.05
2023-04-18T14:42:19.861Z,15.90
2023-04-18T14:44:55.718Z,12.98
2023-04-18T14:47:30.773Z,12.82
2023-04-18T14:50:04.059Z,13.58
2023-04-18T14:52:37.555Z,18.23
2023-04-18T14:55:12.280Z,14.83
2023-04-18T14:57:46.004Z,14.38
2023-04-18T15:00:21.146Z,13.30
2023-04-18T15:02:54.919Z,15.23
2023-04-18T15:05:28.988Z,15.03
2023-04-18T15:08:04.447Z,21.87
2023-04-18T15:10:38.208Z,17.65
2023-04-18T15:13:12.233Z,18.67
2023-04-18T15:15:46.927Z,13.58
2023-04-18T15:18:20.957Z,15.53
2023-04-18T15:20:54.877Z,16.87
2023-04-18T15:23:28.781Z,26.57
2023-04-18T15:26:02.339Z,14.07
2023-04-18T15:28:35.637Z,20.32
2023-04-18T15:31:10.159Z,18.15
2023-04-18T15:33:43.685Z,15.68
2023-04-18T15:36:16.863Z,32.23
2023-04-18T15:38:50.168Z,15.85
2023-04-18T15:41:23.988Z,26.97
2023-04-18T15:43:57.729Z,16.50
2023-04-18T15:46:31.231Z,15.28
2023-04-18T15:49:05.238Z,15.28
2023-04-18T15:51:39.087Z,20.70
2023-04-18T15:54:12.793Z,20.92
2023-04-18T15:56:46.398Z,13.90
2023-04-18T15:59:19.829Z,16.65
2023-04-18T16:01:53.886Z,19.70
2023-04-18T16:04:27.198Z,15.70
2023-04-18T16:07:01.059Z,16.25
2023-04-18T16:09:35.100Z,20.70
2023-04-18T16:12:08.989Z,25.50
2023-04-18T16:14:42.300Z,13.98
2023-04-18T16:17:16.070Z,21.48
2023-04-18T16:19:51.957Z,17.80
2023-04-18T16:22:26.566Z,21.55
2023-04-18T16:25:00.391Z,14.85
2023-04-18T16:27:35.764Z,14.55
2023-04-18T16:30:10.985Z,15.93
2023-04-18T16:32:44.889Z,13.70
2023-04-18T16:35:18.617Z,17.30
2023-04-18T16:37:51.974Z,17.27
2023-04-18T16:40:27.602Z,13.48
2023-04-18T16:43:01.794Z,15.28
2023-04-18T16:45:35.638Z,27.02
2023-04-18T16:48:09.280Z,20.60
2023-04-18T16:50:44.675Z,16.75
2023-04-18T16:53:18.266Z,15.23
2023-04-18T16:55:53.127Z,21.23
2023-04-18T16:58:26.677Z,20.35
2023-04-18T17:01:00.055Z,15.93
2023-04-18T17:03:33.431Z,18.20
2023-04-18T17:06:08.338Z,14.28
2023-04-18T17:08:41.494Z,19.45
2023-04-18T17:11:15.477Z,15.90
2023-04-18T17:13:50.670Z,15.60
2023-04-18T17:16:24.370Z,17.90
2023-04-18T17:18:58.088Z,16.35
2023-04-18T17:21:33.381Z,16.27
2023-04-18T17:24:08.497Z,16.97
2023-04-18T17:26:41.922Z,23.25
2023-04-18T17:29:15.928Z,18.48
2023-04-18T17:31:50.059Z,14.70
2023-04-18T17:34:23.592Z,19.25
2023-04-18T17:36:59.509Z,22.75
2023-04-18T17:39:34.709Z,13.98
2023-04-18T17:42:08.450Z,15.25
2023-04-18T17:44:45.270Z,11.75
2023-04-18T17:47:19.232Z,16.37
2023-04-18T17:49:55.616Z,18.40
2023-04-18T17:52:29.685Z,17.57
2023-04-18T17:55:04.249Z,13.72
2023-04-18T17:57:37.928Z,15.55
2023-04-18T18:00:17.639Z,16.27
2023-04-18T18:02:51.306Z,18.62
2023-04-18T18:05:44.752Z,20.72
2023-04-18T18:08:20.648Z,16.42
2023-04-18T18:10:54.046Z,17.32
2023-04-18T18:13:27.920Z,17.15
2023-04-18T18:16:02.748Z,14.60
2023-04-18T18:18:36.950Z,18.35
2023-04-18T18:21:11.557Z,18.17
2023-04-18T18:23:45.353Z,15.78
2023-04-18T18:26:18.962Z,15.43
2023-04-18T18:28:52.635Z,10.98
2023-04-18T18:31:34.394Z,15.95
2023-04-18T18:34:08.340Z,18.80
2023-04-18T18:36:41.772Z,18.50
2023-04-18T18:39:16.770Z,14.85
2023-04-18T18:41:50.882Z,15.35
2023-04-18T18:44:24.243Z,18.35
2023-04-18T18:46:59.357Z,15.43
2023-04-18T18:49:32.877Z,16.35
2023-04-18T18:52:06.706Z,14.93
2023-04-18T18:54:42.781Z,16.80
2023-04-18T18:57:16.410Z,16.62
2023-04-18T18:59:50.501Z,15.95
2023-04-18T19:02:23.965Z,15.58
2023-04-18T19:04:57.575Z,16.40
2023-04-18T19:07:31.412Z,15.70
2023-04-18T19:10:05.453Z,12.80
2023-04-18T19:12:39.872Z,15.70
2023-04-18T19:15:14.319Z,17.95
2023-04-18T19:17:47.618Z,12.90
2023-04-18T19:20:22.073Z,16.62
2023-04-18T19:22:55.771Z,17.27
2023-04-18T19:25:29.372Z,18.62
2023-04-18T19:28:05.019Z,13.85
2023-04-18T19:30:38.361Z,21.02
2023-04-18T19:33:11.884Z,14.33
2023-04-18T19:35:45.620Z,13.93
2023-04-18T19:38:18.986Z,15.05
2023-04-18T19:40:52.769Z,19.62
2023-04-18T19:43:26.082Z,20.88
2023-04-18T19:46:01.303Z,14.93
2023-04-18T19:48:34.730Z,20.80
2023-04-18T19:51:08.428Z,13.08
2023-04-18T19:53:42.180Z,13.72
2023-04-18T19:56:15.644Z,13.55
2023-04-18T19:58:49.224Z,14.63
2023-04-18T20:01:24.199Z,18.15
2023-04-18T20:03:59.504Z,18.67
2023-04-18T20:06:37.219Z,15.83
2023-04-18T20:09:14.559Z,17.45
2023-04-18T20:11:49.955Z,17.20
2023-04-18T20:14:23.470Z,11.55
2023-04-18T20:16:57.131Z,12.68
2023-04-18T20:19:31.442Z,14.85
2023-04-18T20:22:10.263Z,17.15
2023-04-18T20:24:45.128Z,13.75
2023-04-18T20:27:20.676Z,12.85
2023-04-18T20:29:56.064Z,12.20
2023-04-18T20:32:29.340Z,18.85
2023-04-18T20:35:04.542Z,15.05
2023-04-18T20:37:37.600Z,14.55
2023-04-18T20:40:14.825Z,18.15
2023-04-18T20:42:52.024Z,14.93
2023-04-18T20:45:27.499Z,12.90
2023-04-18T20:48:01.847Z,18.05
2023-04-18T20:50:35.282Z,12.98
2023-04-18T20:53:08.987Z,12.63
2023-04-18T20:55:42.868Z,12.50
2023-04-18T20:58:16.966Z,14.15
2023-04-18T21:01:27.760Z,14.40
2023-04-18T21:04:01.994Z,18.32
2023-04-18T21:06:38.756Z,14.43
2023-04-18T21:09:12.457Z,13.45
2023-04-18T21:11:45.926Z,13.38
2023-04-18T21:14:20.138Z,12.28
2023-04-18T21:16:53.773Z,13.20
2023-04-18T21:19:27.542Z,15.38
2023-04-18T21:22:01.175Z,14.65
2023-04-18T21:24:34.547Z,10.18
2023-04-18T21:27:08.541Z,11.12
2023-04-18T21:29:42.166Z,12.63
2023-04-18T21:32:27.904Z,11.65
2023-04-18T21:35:01.654Z,10.40
2023-04-18T21:37:35.703Z,12.58
2023-04-18T21:40:11.727Z,9.78
2023-04-18T21:42:46.004Z,13.40
2023-04-18T21:45:21.172Z,10.80
2023-04-18T21:47:55.250Z,13.10
2023-04-18T21:50:28.687Z,12.03
2023-04-18T21:53:02.417Z,15.35
2023-04-18T21:55:35.779Z,11.30
2023-04-18T21:58:08.949Z,17.73
2023-04-18T22:00:42.572Z,14.23
2023-04-18T22:03:16.335Z,14.00
2023-04-18T22:05:52.038Z,10.50
2023-04-18T22:08:26.543Z,13.43
2023-04-18T22:11:00.423Z,11.70
2023-04-18T22:13:34.073Z,8.78
2023-04-18T22:16:09.544Z,12.40
2023-04-18T22:18:43.309Z,13.25
2023-04-18T22:21:16.765Z,8.75
2023-04-18T22:23:50.027Z,12.07
2023-04-18T22:26:23.706Z,11.63
2023-04-18T22:28:57.345Z,11.83
2023-04-18T22:31:31.057Z,7.62
2023-04-18T22:34:05.011Z,11.70
2023-04-18T22:36:38.530Z,12.75
2023-04-18T22:39:12.277Z,12.30
2023-04-18T22:41:45.592Z,10.18
2023-04-18T22:44:19.107Z,10.88
2023-04-18T22:46:54.012Z,11.75
2023-04-18T22:49:27.700Z,10.93
2023-04-18T22:52:01.552Z,9.55
2023-04-18T22:54:35.039Z,12.85
2023-04-18T22:57:08.418Z,10.68
2023-04-18T22:59:41.629Z,12.13
2023-04-18T23:02:15.542Z,11.53
2023-04-18T23:04:49.597Z,14.33
2023-04-18T23:07:23.051Z,10.68
2023-04-18T23:09:56.782Z,10.70
2023-04-18T23:12:33.336Z,9.00
2023-04-18T23:15:08.192Z,9.35
2023-04-18T23:17:41.763Z,10.45
2023-04-18T23:20:16.508Z,11.93
2023-04-18T23:22:50.209Z,10.55
2023-04-18T23:25:23.972Z,14.07
2023-04-18T23:27:57.174Z,15.30
2023-04-18T23:30:30.807Z,12.20
2023-04-18T23:33:04.097Z,18.45
2023-04-18T23:35:37.596Z,9.85
2023-04-18T23:38:13.463Z,12.37
2023-04-18T23:40:47.070Z,10.45
2023-04-18T23:43:21.034Z,13.62
2023-04-18T23:45:57.042Z,14.43
2023-04-18T23:48:33.537Z,13.03
2023-04-18T23:51:07.328Z,11.00
2023-04-18T23:53:40.805Z,12.23
2023-04-18T23:56:14.333Z,11.00
2023-04-18T23:58:47.679Z,12.60
